sensor_id;sensor_type;location;lat;lon;timestamp;P1;durP1;ratioP1;P2;durP2;ratioP2
6101;SDS011;3081;50.584;7.032;2023-05-07T00:00:42;3.53;;;2.10;;
6101;SDS011;3081;50.584;7.032;2023-05-07T00:03:09;4.30;;;2.00;;
6101;SDS011;3081;50.584;7.032;2023-05-07T00:05:40;3.50;;;1.80;;
6101;SDS011;3081;50.584;7.032;2023-05-07T00:08:07;4.23;;;2.10;;
6101;SDS011;3081;50.584;7.032;2023-05-07T00:10:34;3.40;;;2.03;;
6101;SDS011;3081;50.584;7.032;2023-05-07T00:13:01;7.13;;;3.90;;
6101;SDS011;3081;50.584;7.032;2023-05-07T00:15:28;7.00;;;3.90;;
6101;SDS011;3081;50.584;7.032;2023-05-07T00:17:55;6.73;;;2.80;;
6101;SDS011;3081;50.584;7.032;2023-05-07T00:20:22;9.40;;;2.50;;
6101;SDS011;3081;50.584;7.032;2023-05-07T00:22:50;5.90;;;2.40;;
6101;SDS011;3081;50.584;7.032;2023-05-07T00:25:18;5.03;;;2.30;;
6101;SDS011;3081;50.584;7.032;2023-05-07T00:27:45;5.10;;;2.70;;
6101;SDS011;3081;50.584;7.032;2023-05-07T00:30:12;9.30;;;4.50;;
6101;SDS011;3081;50.584;7.032;2023-05-07T00:32:39;8.07;;;4.43;;
6101;SDS011;3081;50.584;7.032;2023-05-07T00:35:07;6.77;;;3.53;;
6101;SDS011;3081;50.584;7.032;2023-05-07T00:37:34;9.07;;;3.47;;
6101;SDS011;3081;50.584;7.032;2023-05-07T00:40:03;8.10;;;3.97;;
6101;SDS011;3081;50.584;7.032;2023-05-07T00:42:32;4.03;;;2.50;;
6101;SDS011;3081;50.584;7.032;2023-05-07T00:44:59;4.83;;;2.73;;
6101;SDS011;3081;50.584;7.032;2023-05-07T00:47:26;5.70;;;2.90;;
6101;SDS011;3081;50.584;7.032;2023-05-07T00:49:53;6.63;;;3.70;;
6101;SDS011;3081;50.584;7.032;2023-05-07T00:52:20;5.97;;;2.90;;
6101;SDS011;3081;50.584;7.032;2023-05-07T00:54:50;13.30;;;5.30;;
6101;SDS011;3081;50.584;7.032;2023-05-07T00:57:18;6.07;;;3.07;;
6101;SDS011;3081;50.584;7.032;2023-05-07T00:59:46;4.20;;;2.90;;
6101;SDS011;3081;50.584;7.032;2023-05-07T01:02:14;7.13;;;3.90;;
6101;SDS011;3081;50.584;7.032;2023-05-07T01:04:41;6.80;;;2.63;;
6101;SDS011;3081;50.584;7.032;2023-05-07T01:07:07;7.37;;;3.20;;
6101;SDS011;3081;50.584;7.032;2023-05-07T01:09:35;5.37;;;2.70;;
6101;SDS011;3081;50.584;7.032;2023-05-07T01:12:03;4.10;;;2.60;;
6101;SDS011;3081;50.584;7.032;2023-05-07T01:14:31;4.07;;;2.70;;
6101;SDS011;3081;50.584;7.032;2023-05-07T01:16:59;7.10;;;2.57;;
6101;SDS011;3081;50.584;7.032;2023-05-07T01:19:26;7.07;;;2.53;;
6101;SDS011;3081;50.584;7.032;2023-05-07T01:21:55;3.87;;;2.30;;
6101;SDS011;3081;50.584;7.032;2023-05-07T01:24:29;3.97;;;2.40;;
6101;SDS011;3081;50.584;7.032;2023-05-07T01:26:57;3.67;;;2.40;;
6101;SDS011;3081;50.584;7.032;2023-05-07T01:29:24;4.20;;;2.80;;
6101;SDS011;3081;50.584;7.032;2023-05-07T01:31:51;4.00;;;2.20;;
6101;SDS011;3081;50.584;7.032;2023-05-07T01:34:19;7.00;;;2.57;;
6101;SDS011;3081;50.584;7.032;2023-05-07T01:36:47;5.77;;;2.00;;
6101;SDS011;3081;50.584;7.032;2023-05-07T01:39:15;3.60;;;2.30;;
6101;SDS011;3081;50.584;7.032;2023-05-07T01:41:44;3.90;;;1.93;;
6101;SDS011;3081;50.584;7.032;2023-05-07T01:44:12;5.53;;;3.03;;
6101;SDS011;3081;50.584;7.032;2023-05-07T01:46:40;4.50;;;2.80;;
6101;SDS011;3081;50.584;7.032;2023-05-07T01:49:07;6.73;;;2.80;;
6101;SDS011;3081;50.584;7.032;2023-05-07T01:51:35;5.63;;;3.53;;
6101;SDS011;3081;50.584;7.032;2023-05-07T01:54:02;3.80;;;2.47;;
6101;SDS011;3081;50.584;7.032;2023-05-07T01:56:29;4.47;;;2.70;;
6101;SDS011;3081;50.584;7.032;2023-05-07T01:58:57;6.30;;;2.73;;
6101;SDS011;3081;50.584;7.032;2023-05-07T02:01:24;4.50;;;2.50;;
6101;SDS011;3081;50.584;7.032;2023-05-07T02:03:51;3.80;;;2.17;;
6101;SDS011;3081;50.584;7.032;2023-05-07T02:06:18;5.50;;;2.20;;
6101;SDS011;3081;50.584;7.032;2023-05-07T02:08:46;3.80;;;2.30;;
6101;SDS011;3081;50.584;7.032;2023-05-07T02:11:13;4.03;;;2.30;;
6101;SDS011;3081;50.584;7.032;2023-05-07T02:13:40;6.60;;;2.10;;
6101;SDS011;3081;50.584;7.032;2023-05-07T02:16:09;4.97;;;2.30;;
6101;SDS011;3081;50.584;7.032;2023-05-07T02:18:36;3.90;;;2.50;;
6101;SDS011;3081;50.584;7.032;2023-05-07T02:21:03;5.53;;;2.70;;
6101;SDS011;3081;50.584;7.032;2023-05-07T02:23:30;5.23;;;2.70;;
6101;SDS011;3081;50.584;7.032;2023-05-07T02:25:56;3.70;;;2.43;;
6101;SDS011;3081;50.584;7.032;2023-05-07T02:28:23;4.73;;;2.43;;
6101;SDS011;3081;50.584;7.032;2023-05-07T02:30:50;5.40;;;2.70;;
6101;SDS011;3081;50.584;7.032;2023-05-07T02:33:18;4.80;;;2.13;;
6101;SDS011;3081;50.584;7.032;2023-05-07T02:35:45;4.80;;;2.30;;
6101;SDS011;3081;50.584;7.032;2023-05-07T02:38:12;3.80;;;2.30;;
6101;SDS011;3081;50.584;7.032;2023-05-07T02:40:39;4.20;;;2.20;;
6101;SDS011;3081;50.584;7.032;2023-05-07T02:43:06;3.80;;;2.50;;
6101;SDS011;3081;50.584;7.032;2023-05-07T02:45:33;3.87;;;2.40;;
6101;SDS011;3081;50.584;7.032;2023-05-07T02:48:01;3.50;;;2.20;;
6101;SDS011;3081;50.584;7.032;2023-05-07T02:50:29;3.27;;;1.83;;
6101;SDS011;3081;50.584;7.032;2023-05-07T02:52:57;3.70;;;2.00;;
6101;SDS011;3081;50.584;7.032;2023-05-07T02:55:24;3.90;;;2.23;;
6101;SDS011;3081;50.584;7.032;2023-05-07T02:57:51;5.90;;;2.13;;
6101;SDS011;3081;50.584;7.032;2023-05-07T03:00:18;3.90;;;2.03;;
6101;SDS011;3081;50.584;7.032;2023-05-07T03:02:46;6.37;;;2.30;;
6101;SDS011;3081;50.584;7.032;2023-05-07T03:05:13;4.50;;;2.33;;
6101;SDS011;3081;50.584;7.032;2023-05-07T03:07:41;4.40;;;1.87;;
6101;SDS011;3081;50.584;7.032;2023-05-07T03:10:10;3.47;;;2.20;;
6101;SDS011;3081;50.584;7.032;2023-05-07T03:12:37;4.47;;;2.17;;
6101;SDS011;3081;50.584;7.032;2023-05-07T03:15:04;4.27;;;2.27;;
6101;SDS011;3081;50.584;7.032;2023-05-07T03:17:33;3.40;;;2.10;;
6101;SDS011;3081;50.584;7.032;2023-05-07T03:20:00;3.00;;;1.83;;
6101;SDS011;3081;50.584;7.032;2023-05-07T03:22:26;3.53;;;2.00;;
6101;SDS011;3081;50.584;7.032;2023-05-07T03:24:55;5.83;;;2.10;;
6101;SDS011;3081;50.584;7.032;2023-05-07T03:27:22;4.20;;;2.33;;
6101;SDS011;3081;50.584;7.032;2023-05-07T03:29:49;5.90;;;2.47;;
6101;SDS011;3081;50.584;7.032;2023-05-07T03:32:16;2.87;;;1.80;;
6101;SDS011;3081;50.584;7.032;2023-05-07T03:34:42;3.00;;;1.80;;
6101;SDS011;3081;50.584;7.032;2023-05-07T03:37:09;3.40;;;2.10;;
6101;SDS011;3081;50.584;7.032;2023-05-07T03:39:36;3.23;;;2.00;;
6101;SDS011;3081;50.584;7.032;2023-05-07T03:42:04;3.70;;;2.00;;
6101;SDS011;3081;50.584;7.032;2023-05-07T03:44:31;3.70;;;2.03;;
6101;SDS011;3081;50.584;7.032;2023-05-07T03:46:58;3.50;;;2.00;;
6101;SDS011;3081;50.584;7.032;2023-05-07T03:49:25;4.70;;;2.20;;
6101;SDS011;3081;50.584;7.032;2023-05-07T03:51:52;5.53;;;2.33;;
6101;SDS011;3081;50.584;7.032;2023-05-07T03:54:19;5.17;;;2.53;;
6101;SDS011;3081;50.584;7.032;2023-05-07T03:56:46;3.47;;;2.03;;
6101;SDS011;3081;50.584;7.032;2023-05-07T03:59:14;5.43;;;2.77;;
6101;SDS011;3081;50.584;7.032;2023-05-07T04:01:41;3.80;;;2.67;;
6101;SDS011;3081;50.584;7.032;2023-05-07T04:04:08;3.77;;;2.40;;
6101;SDS011;3081;50.584;7.032;2023-05-07T04:06:35;5.00;;;2.67;;
6101;SDS011;3081;50.584;7.032;2023-05-07T04:09:02;3.87;;;2.53;;
6101;SDS011;3081;50.584;7.032;2023-05-07T04:11:29;4.00;;;2.70;;
6101;SDS011;3081;50.584;7.032;2023-05-07T04:13:56;4.17;;;2.47;;
6101;SDS011;3081;50.584;7.032;2023-05-07T04:16:24;3.27;;;2.40;;
6101;SDS011;3081;50.584;7.032;2023-05-07T04:18:51;3.93;;;2.10;;
6101;SDS011;3081;50.584;7.032;2023-05-07T04:21:19;3.40;;;2.00;;
6101;SDS011;3081;50.584;7.032;2023-05-07T04:23:47;4.77;;;2.40;;
6101;SDS011;3081;50.584;7.032;2023-05-07T04:26:14;3.27;;;2.20;;
6101;SDS011;3081;50.584;7.032;2023-05-07T04:28:42;5.40;;;2.27;;
6101;SDS011;3081;50.584;7.032;2023-05-07T04:31:09;3.80;;;2.53;;
6101;SDS011;3081;50.584;7.032;2023-05-07T04:33:37;5.53;;;3.13;;
6101;SDS011;3081;50.584;7.032;2023-05-07T04:36:04;4.70;;;3.27;;
6101;SDS011;3081;50.584;7.032;2023-05-07T04:38:31;7.67;;;3.60;;
6101;SDS011;3081;50.584;7.032;2023-05-07T04:41:02;6.40;;;3.77;;
6101;SDS011;3081;50.584;7.032;2023-05-07T04:43:30;4.97;;;3.60;;
6101;SDS011;3081;50.584;7.032;2023-05-07T04:45:57;5.03;;;3.60;;
6101;SDS011;3081;50.584;7.032;2023-05-07T04:48:24;5.40;;;3.63;;
6101;SDS011;3081;50.584;7.032;2023-05-07T04:50:52;4.80;;;3.17;;
6101;SDS011;3081;50.584;7.032;2023-05-07T04:53:20;4.30;;;3.00;;
6101;SDS011;3081;50.584;7.032;2023-05-07T04:55:47;3.87;;;2.70;;
6101;SDS011;3081;50.584;7.032;2023-05-07T04:58:14;4.40;;;2.80;;
6101;SDS011;3081;50.584;7.032;2023-05-07T05:00:41;4.00;;;3.03;;
6101;SDS011;3081;50.584;7.032;2023-05-07T05:03:08;3.60;;;2.30;;
6101;SDS011;3081;50.584;7.032;2023-05-07T05:05:36;5.07;;;2.27;;
6101;SDS011;3081;50.584;7.032;2023-05-07T05:08:04;4.10;;;2.60;;
6101;SDS011;3081;50.584;7.032;2023-05-07T05:10:31;21.87;;;10.90;;
6101;SDS011;3081;50.584;7.032;2023-05-07T05:12:58;6.77;;;4.20;;
6101;SDS011;3081;50.584;7.032;2023-05-07T05:15:25;4.70;;;2.70;;
6101;SDS011;3081;50.584;7.032;2023-05-07T05:17:52;4.67;;;2.70;;
6101;SDS011;3081;50.584;7.032;2023-05-07T05:20:19;13.10;;;5.60;;
6101;SDS011;3081;50.584;7.032;2023-05-07T05:22:45;21.67;;;10.97;;
6101;SDS011;3081;50.584;7.032;2023-05-07T05:25:14;12.80;;;8.53;;
6101;SDS011;3081;50.584;7.032;2023-05-07T05:27:41;8.90;;;5.13;;
6101;SDS011;3081;50.584;7.032;2023-05-07T05:30:08;16.57;;;11.37;;
6101;SDS011;3081;50.584;7.032;2023-05-07T05:32:35;4.13;;;2.77;;
6101;SDS011;3081;50.584;7.032;2023-05-07T05:35:03;6.33;;;2.20;;
6101;SDS011;3081;50.584;7.032;2023-05-07T05:37:30;11.57;;;6.97;;
6101;SDS011;3081;50.584;7.032;2023-05-07T05:39:57;5.20;;;2.60;;
6101;SDS011;3081;50.584;7.032;2023-05-07T05:42:26;4.67;;;2.70;;
6101;SDS011;3081;50.584;7.032;2023-05-07T05:44:53;4.43;;;2.20;;
6101;SDS011;3081;50.584;7.032;2023-05-07T05:47:20;4.10;;;2.67;;
6101;SDS011;3081;50.584;7.032;2023-05-07T05:49:47;5.10;;;2.70;;
6101;SDS011;3081;50.584;7.032;2023-05-07T05:52:14;6.43;;;2.20;;
6101;SDS011;3081;50.584;7.032;2023-05-07T05:54:41;4.67;;;2.17;;
6101;SDS011;3081;50.584;7.032;2023-05-07T05:57:08;7.67;;;2.90;;
6101;SDS011;3081;50.584;7.032;2023-05-07T05:59:37;9.70;;;2.90;;
6101;SDS011;3081;50.584;7.032;2023-05-07T06:02:03;4.90;;;2.37;;
6101;SDS011;3081;50.584;7.032;2023-05-07T06:04:30;4.23;;;2.03;;
6101;SDS011;3081;50.584;7.032;2023-05-07T06:06:57;5.63;;;1.80;;
6101;SDS011;3081;50.584;7.032;2023-05-07T06:09:24;4.47;;;2.23;;
6101;SDS011;3081;50.584;7.032;2023-05-07T06:11:51;5.93;;;2.77;;
6101;SDS011;3081;50.584;7.032;2023-05-07T06:14:18;4.00;;;1.73;;
6101;SDS011;3081;50.584;7.032;2023-05-07T06:16:46;4.50;;;1.80;;
6101;SDS011;3081;50.584;7.032;2023-05-07T06:19:13;5.50;;;1.70;;
6101;SDS011;3081;50.584;7.032;2023-05-07T06:21:43;3.90;;;1.80;;
6101;SDS011;3081;50.584;7.032;2023-05-07T06:24:10;4.33;;;1.57;;
6101;SDS011;3081;50.584;7.032;2023-05-07T06:26:36;4.33;;;2.00;;
6101;SDS011;3081;50.584;7.032;2023-05-07T06:29:03;8.30;;;1.70;;
6101;SDS011;3081;50.584;7.032;2023-05-07T06:31:30;3.97;;;1.77;;
6101;SDS011;3081;50.584;7.032;2023-05-07T06:33:59;4.50;;;1.67;;
6101;SDS011;3081;50.584;7.032;2023-05-07T06:36:27;4.27;;;1.83;;
6101;SDS011;3081;50.584;7.032;2023-05-07T06:38:54;3.40;;;1.50;;
6101;SDS011;3081;50.584;7.032;2023-05-07T06:41:21;4.30;;;2.00;;
6101;SDS011;3081;50.584;7.032;2023-05-07T06:43:48;4.00;;;1.77;;
6101;SDS011;3081;50.584;7.032;2023-05-07T06:46:15;5.20;;;2.00;;
6101;SDS011;3081;50.584;7.032;2023-05-07T06:48:42;5.33;;;1.90;;
6101;SDS011;3081;50.584;7.032;2023-05-07T06:51:10;3.70;;;1.73;;
6101;SDS011;3081;50.584;7.032;2023-05-07T06:53:37;3.60;;;1.70;;
6101;SDS011;3081;50.584;7.032;2023-05-07T06:56:04;5.77;;;2.03;;
6101;SDS011;3081;50.584;7.032;2023-05-07T06:58:31;6.00;;;1.93;;
6101;SDS011;3081;50.584;7.032;2023-05-07T07:00:59;4.50;;;2.00;;
6101;SDS011;3081;50.584;7.032;2023-05-07T07:03:26;5.47;;;2.30;;
6101;SDS011;3081;50.584;7.032;2023-05-07T07:05:53;4.63;;;1.80;;
6101;SDS011;3081;50.584;7.032;2023-05-07T07:08:21;4.17;;;1.87;;
6101;SDS011;3081;50.584;7.032;2023-05-07T07:10:48;5.97;;;2.03;;
6101;SDS011;3081;50.584;7.032;2023-05-07T07:13:15;5.33;;;1.73;;
6101;SDS011;3081;50.584;7.032;2023-05-07T07:15:42;4.00;;;1.70;;
6101;SDS011;3081;50.584;7.032;2023-05-07T07:18:10;5.80;;;1.60;;
6101;SDS011;3081;50.584;7.032;2023-05-07T07:20:37;4.50;;;2.03;;
6101;SDS011;3081;50.584;7.032;2023-05-07T07:23:03;6.20;;;1.93;;
6101;SDS011;3081;50.584;7.032;2023-05-07T07:25:32;4.77;;;2.00;;
6101;SDS011;3081;50.584;7.032;2023-05-07T07:27:59;5.67;;;1.83;;
6101;SDS011;3081;50.584;7.032;2023-05-07T07:30:25;4.70;;;1.97;;
6101;SDS011;3081;50.584;7.032;2023-05-07T07:32:52;6.40;;;2.30;;
6101;SDS011;3081;50.584;7.032;2023-05-07T07:35:20;4.83;;;1.60;;
6101;SDS011;3081;50.584;7.032;2023-05-07T07:37:48;5.53;;;2.53;;
6101;SDS011;3081;50.584;7.032;2023-05-07T07:40:15;5.37;;;2.77;;
6101;SDS011;3081;50.584;7.032;2023-05-07T07:42:44;5.70;;;2.30;;
6101;SDS011;3081;50.584;7.032;2023-05-07T07:45:10;7.00;;;3.80;;
6101;SDS011;3081;50.584;7.032;2023-05-07T07:47:38;6.43;;;2.50;;
6101;SDS011;3081;50.584;7.032;2023-05-07T07:50:05;5.00;;;2.13;;
6101;SDS011;3081;50.584;7.032;2023-05-07T07:52:33;6.37;;;2.43;;
6101;SDS011;3081;50.584;7.032;2023-05-07T07:55:00;5.07;;;2.47;;
6101;SDS011;3081;50.584;7.032;2023-05-07T07:57:27;7.83;;;2.40;;
6101;SDS011;3081;50.584;7.032;2023-05-07T07:59:56;5.40;;;2.50;;
6101;SDS011;3081;50.584;7.032;2023-05-07T08:02:23;5.70;;;2.23;;
6101;SDS011;3081;50.584;7.032;2023-05-07T08:04:50;6.30;;;2.10;;
6101;SDS011;3081;50.584;7.032;2023-05-07T08:07:17;8.30;;;2.30;;
6101;SDS011;3081;50.584;7.032;2023-05-07T08:09:45;7.17;;;2.30;;
6101;SDS011;3081;50.584;7.032;2023-05-07T08:12:13;5.97;;;1.70;;
6101;SDS011;3081;50.584;7.032;2023-05-07T08:14:40;5.73;;;1.90;;
6101;SDS011;3081;50.584;7.032;2023-05-07T08:17:08;7.93;;;2.00;;
6101;SDS011;3081;50.584;7.032;2023-05-07T08:19:35;8.47;;;2.20;;
6101;SDS011;3081;50.584;7.032;2023-05-07T08:22:02;7.20;;;1.90;;
6101;SDS011;3081;50.584;7.032;2023-05-07T08:24:30;7.00;;;2.10;;
6101;SDS011;3081;50.584;7.032;2023-05-07T08:26:57;12.00;;;5.13;;
6101;SDS011;3081;50.584;7.032;2023-05-07T08:29:24;7.37;;;2.00;;
6101;SDS011;3081;50.584;7.032;2023-05-07T08:31:51;8.93;;;3.27;;
6101;SDS011;3081;50.584;7.032;2023-05-07T08:34:20;8.97;;;4.20;;
6101;SDS011;3081;50.584;7.032;2023-05-07T08:36:48;8.90;;;2.10;;
6101;SDS011;3081;50.584;7.032;2023-05-07T08:39:15;8.60;;;2.43;;
6101;SDS011;3081;50.584;7.032;2023-05-07T08:41:43;9.53;;;2.60;;
6101;SDS011;3081;50.584;7.032;2023-05-07T08:44:12;7.47;;;1.90;;
6101;SDS011;3081;50.584;7.032;2023-05-07T08:46:40;8.57;;;2.20;;
6101;SDS011;3081;50.584;7.032;2023-05-07T08:49:08;12.13;;;2.40;;
6101;SDS011;3081;50.584;7.032;2023-05-07T08:51:36;7.80;;;2.30;;
6101;SDS011;3081;50.584;7.032;2023-05-07T08:54:04;8.00;;;2.50;;
6101;SDS011;3081;50.584;7.032;2023-05-07T08:56:31;8.27;;;2.00;;
6101;SDS011;3081;50.584;7.032;2023-05-07T08:58:58;8.60;;;2.10;;
6101;SDS011;3081;50.584;7.032;2023-05-07T09:01:25;12.13;;;2.13;;
6101;SDS011;3081;50.584;7.032;2023-05-07T09:03:52;9.10;;;2.40;;
6101;SDS011;3081;50.584;7.032;2023-05-07T09:06:20;9.50;;;2.23;;
6101;SDS011;3081;50.584;7.032;2023-05-07T09:08:51;10.47;;;2.30;;
6101;SDS011;3081;50.584;7.032;2023-05-07T09:11:20;7.60;;;2.13;;
6101;SDS011;3081;50.584;7.032;2023-05-07T09:13:47;7.97;;;1.90;;
6101;SDS011;3081;50.584;7.032;2023-05-07T09:16:15;9.07;;;2.17;;
6101;SDS011;3081;50.584;7.032;2023-05-07T09:18:42;7.97;;;2.07;;
6101;SDS011;3081;50.584;7.032;2023-05-07T09:21:10;9.40;;;2.10;;
6101;SDS011;3081;50.584;7.032;2023-05-07T09:23:37;8.60;;;2.37;;
6101;SDS011;3081;50.584;7.032;2023-05-07T09:26:06;14.20;;;2.80;;
6101;SDS011;3081;50.584;7.032;2023-05-07T09:28:38;7.87;;;2.20;;
6101;SDS011;3081;50.584;7.032;2023-05-07T09:31:06;8.20;;;2.10;;
6101;SDS011;3081;50.584;7.032;2023-05-07T09:33:33;7.70;;;2.00;;
6101;SDS011;3081;50.584;7.032;2023-05-07T09:36:02;7.60;;;1.90;;
6101;SDS011;3081;50.584;7.032;2023-05-07T09:38:30;7.27;;;1.80;;
6101;SDS011;3081;50.584;7.032;2023-05-07T09:41:03;7.87;;;1.97;;
6101;SDS011;3081;50.584;7.032;2023-05-07T09:43:33;7.60;;;2.00;;
6101;SDS011;3081;50.584;7.032;2023-05-07T09:46:06;8.33;;;2.00;;
6101;SDS011;3081;50.584;7.032;2023-05-07T09:48:37;7.53;;;1.93;;
6101;SDS011;3081;50.584;7.032;2023-05-07T09:51:06;9.47;;;1.93;;
6101;SDS011;3081;50.584;7.032;2023-05-07T09:53:44;9.03;;;3.23;;
6101;SDS011;3081;50.584;7.032;2023-05-07T09:56:13;9.93;;;2.70;;
6101;SDS011;3081;50.584;7.032;2023-05-07T09:58:41;7.83;;;2.07;;
6101;SDS011;3081;50.584;7.032;2023-05-07T10:01:10;8.73;;;2.20;;
6101;SDS011;3081;50.584;7.032;2023-05-07T10:03:37;10.60;;;3.60;;
6101;SDS011;3081;50.584;7.032;2023-05-07T10:06:08;7.07;;;1.90;;
6101;SDS011;3081;50.584;7.032;2023-05-07T10:08:35;9.13;;;3.23;;
6101;SDS011;3081;50.584;7.032;2023-05-07T10:11:03;7.13;;;1.60;;
6101;SDS011;3081;50.584;7.032;2023-05-07T10:13:32;13.17;;;1.87;;
6101;SDS011;3081;50.584;7.032;2023-05-07T10:16:01;7.73;;;1.97;;
6101;SDS011;3081;50.584;7.032;2023-05-07T10:18:29;8.13;;;2.00;;
6101;SDS011;3081;50.584;7.032;2023-05-07T10:20:59;6.97;;;1.60;;
6101;SDS011;3081;50.584;7.032;2023-05-07T10:23:30;8.27;;;2.00;;
6101;SDS011;3081;50.584;7.032;2023-05-07T10:25:59;7.00;;;1.77;;
6101;SDS011;3081;50.584;7.032;2023-05-07T10:28:29;9.60;;;2.97;;
6101;SDS011;3081;50.584;7.032;2023-05-07T10:31:03;6.60;;;1.40;;
6101;SDS011;3081;50.584;7.032;2023-05-07T10:33:41;6.77;;;1.47;;
6101;SDS011;3081;50.584;7.032;2023-05-07T10:36:10;6.20;;;1.40;;
6101;SDS011;3081;50.584;7.032;2023-05-07T10:38:38;7.90;;;1.83;;
6101;SDS011;3081;50.584;7.032;2023-05-07T10:41:05;8.10;;;1.73;;
6101;SDS011;3081;50.584;7.032;2023-05-07T10:43:39;10.00;;;1.70;;
6101;SDS011;3081;50.584;7.032;2023-05-07T10:46:13;8.30;;;1.70;;
6101;SDS011;3081;50.584;7.032;2023-05-07T10:51:33;8.50;;;2.00;;
6101;SDS011;3081;50.584;7.032;2023-05-07T10:54:19;8.37;;;1.80;;
6101;SDS011;3081;50.584;7.032;2023-05-07T10:56:47;7.67;;;2.10;;
6101;SDS011;3081;50.584;7.032;2023-05-07T10:59:31;10.57;;;4.07;;
6101;SDS011;3081;50.584;7.032;2023-05-07T11:02:10;7.97;;;2.20;;
6101;SDS011;3081;50.584;7.032;2023-05-07T11:04:39;7.30;;;1.50;;
6101;SDS011;3081;50.584;7.032;2023-05-07T11:09:56;7.07;;;1.43;;
6101;SDS011;3081;50.584;7.032;2023-05-07T11:15:37;7.00;;;1.47;;
6101;SDS011;3081;50.584;7.032;2023-05-07T11:18:08;7.77;;;1.60;;
6101;SDS011;3081;50.584;7.032;2023-05-07T11:20:49;10.97;;;1.63;;
6101;SDS011;3081;50.584;7.032;2023-05-07T11:26:22;7.43;;;1.93;;
6101;SDS011;3081;50.584;7.032;2023-05-07T11:28:50;7.40;;;1.60;;
6101;SDS011;3081;50.584;7.032;2023-05-07T11:31:20;7.03;;;1.50;;
6101;SDS011;3081;50.584;7.032;2023-05-07T11:33:51;6.70;;;1.30;;
6101;SDS011;3081;50.584;7.032;2023-05-07T11:36:18;12.03;;;5.50;;
6101;SDS011;3081;50.584;7.032;2023-05-07T11:38:46;8.33;;;2.73;;
6101;SDS011;3081;50.584;7.032;2023-05-07T11:41:13;7.57;;;1.77;;
6101;SDS011;3081;50.584;7.032;2023-05-07T11:43:55;6.63;;;1.30;;
6101;SDS011;3081;50.584;7.032;2023-05-07T11:46:23;7.60;;;2.17;;
6101;SDS011;3081;50.584;7.032;2023-05-07T11:48:51;10.00;;;3.20;;
6101;SDS011;3081;50.584;7.032;2023-05-07T11:51:19;6.77;;;1.43;;
6101;SDS011;3081;50.584;7.032;2023-05-07T11:53:46;6.90;;;1.37;;
6101;SDS011;3081;50.584;7.032;2023-05-07T11:56:14;8.57;;;1.97;;
6101;SDS011;3081;50.584;7.032;2023-05-07T11:58:44;6.80;;;1.37;;
6101;SDS011;3081;50.584;7.032;2023-05-07T12:01:12;7.70;;;1.73;;
6101;SDS011;3081;50.584;7.032;2023-05-07T12:03:40;6.70;;;1.30;;
6101;SDS011;3081;50.584;7.032;2023-05-07T12:06:10;7.10;;;1.60;;
6101;SDS011;3081;50.584;7.032;2023-05-07T12:08:38;6.70;;;1.40;;
6101;SDS011;3081;50.584;7.032;2023-05-07T12:11:09;11.70;;;1.40;;
6101;SDS011;3081;50.584;7.032;2023-05-07T12:13:38;7.30;;;1.50;;
6101;SDS011;3081;50.584;7.032;2023-05-07T12:16:05;6.70;;;1.23;;
6101;SDS011;3081;50.584;7.032;2023-05-07T12:18:34;6.37;;;1.20;;
6101;SDS011;3081;50.584;7.032;2023-05-07T12:21:02;6.60;;;1.23;;
6101;SDS011;3081;50.584;7.032;2023-05-07T12:23:32;6.37;;;1.20;;
6101;SDS011;3081;50.584;7.032;2023-05-07T12:26:00;9.20;;;1.40;;
6101;SDS011;3081;50.584;7.032;2023-05-07T12:28:27;7.93;;;1.50;;
6101;SDS011;3081;50.584;7.032;2023-05-07T12:30:55;7.87;;;2.00;;
6101;SDS011;3081;50.584;7.032;2023-05-07T12:33:23;6.43;;;1.20;;
6101;SDS011;3081;50.584;7.032;2023-05-07T12:35:54;8.40;;;1.60;;
6101;SDS011;3081;50.584;7.032;2023-05-07T12:38:21;7.73;;;1.50;;
6101;SDS011;3081;50.584;7.032;2023-05-07T12:40:50;8.33;;;1.33;;
6101;SDS011;3081;50.584;7.032;2023-05-07T12:43:21;7.40;;;1.50;;
6101;SDS011;3081;50.584;7.032;2023-05-07T12:45:51;7.77;;;1.40;;
6101;SDS011;3081;50.584;7.032;2023-05-07T12:48:20;8.00;;;1.43;;
6101;SDS011;3081;50.584;7.032;2023-05-07T12:50:49;7.13;;;1.47;;
6101;SDS011;3081;50.584;7.032;2023-05-07T12:53:16;7.57;;;1.27;;
6101;SDS011;3081;50.584;7.032;2023-05-07T12:55:43;6.83;;;1.20;;
6101;SDS011;3081;50.584;7.032;2023-05-07T12:58:16;9.63;;;2.93;;
6101;SDS011;3081;50.584;7.032;2023-05-07T13:00:44;7.60;;;1.53;;
6101;SDS011;3081;50.584;7.032;2023-05-07T13:03:17;7.67;;;1.40;;
6101;SDS011;3081;50.584;7.032;2023-05-07T13:05:48;8.40;;;1.53;;
6101;SDS011;3081;50.584;7.032;2023-05-07T13:08:23;20.50;;;7.90;;
6101;SDS011;3081;50.584;7.032;2023-05-07T13:10:50;17.80;;;2.70;;
6101;SDS011;3081;50.584;7.032;2023-05-07T13:13:19;7.80;;;1.60;;
6101;SDS011;3081;50.584;7.032;2023-05-07T13:15:46;8.83;;;1.77;;
6101;SDS011;3081;50.584;7.032;2023-05-07T13:18:13;8.00;;;1.83;;
6101;SDS011;3081;50.584;7.032;2023-05-07T13:20:40;7.10;;;1.20;;
6101;SDS011;3081;50.584;7.032;2023-05-07T13:23:07;9.20;;;1.80;;
6101;SDS011;3081;50.584;7.032;2023-05-07T13:25:33;9.97;;;1.60;;
6101;SDS011;3081;50.584;7.032;2023-05-07T13:28:00;8.63;;;2.23;;
6101;SDS011;3081;50.584;7.032;2023-05-07T13:30:29;8.23;;;2.10;;
6101;SDS011;3081;50.584;7.032;2023-05-07T13:32:56;11.70;;;2.80;;
6101;SDS011;3081;50.584;7.032;2023-05-07T13:35:23;14.60;;;2.97;;
6101;SDS011;3081;50.584;7.032;2023-05-07T13:37:50;12.57;;;3.37;;
6101;SDS011;3081;50.584;7.032;2023-05-07T13:40:17;13.10;;;2.90;;
6101;SDS011;3081;50.584;7.032;2023-05-07T13:42:44;11.80;;;4.60;;
6101;SDS011;3081;50.584;7.032;2023-05-07T13:45:11;17.20;;;5.63;;
6101;SDS011;3081;50.584;7.032;2023-05-07T13:47:40;9.47;;;3.23;;
6101;SDS011;3081;50.584;7.032;2023-05-07T13:50:08;9.20;;;2.80;;
6101;SDS011;3081;50.584;7.032;2023-05-07T13:52:36;8.53;;;3.70;;
6101;SDS011;3081;50.584;7.032;2023-05-07T13:55:05;8.93;;;3.73;;
6101;SDS011;3081;50.584;7.032;2023-05-07T13:57:33;9.80;;;3.23;;
6101;SDS011;3081;50.584;7.032;2023-05-07T14:00:00;9.03;;;3.97;;
6101;SDS011;3081;50.584;7.032;2023-05-07T14:02:27;8.70;;;3.83;;
6101;SDS011;3081;50.584;7.032;2023-05-07T14:04:55;9.10;;;4.07;;
6101;SDS011;3081;50.584;7.032;2023-05-07T14:07:22;15.10;;;4.60;;
6101;SDS011;3081;50.584;7.032;2023-05-07T14:09:49;8.63;;;4.80;;
6101;SDS011;3081;50.584;7.032;2023-05-07T14:12:16;9.00;;;3.87;;
6101;SDS011;3081;50.584;7.032;2023-05-07T14:14:43;11.00;;;5.30;;
6101;SDS011;3081;50.584;7.032;2023-05-07T14:17:12;5.97;;;3.53;;
6101;SDS011;3081;50.584;7.032;2023-05-07T14:19:38;7.30;;;4.00;;
6101;SDS011;3081;50.584;7.032;2023-05-07T14:22:07;8.70;;;4.30;;
6101;SDS011;3081;50.584;7.032;2023-05-07T14:24:34;7.43;;;4.07;;
6101;SDS011;3081;50.584;7.032;2023-05-07T14:27:00;6.40;;;3.70;;
6101;SDS011;3081;50.584;7.032;2023-05-07T14:29:27;7.23;;;3.60;;
6101;SDS011;3081;50.584;7.032;2023-05-07T14:31:54;5.83;;;3.90;;
6101;SDS011;3081;50.584;7.032;2023-05-07T14:34:21;6.60;;;4.47;;
6101;SDS011;3081;50.584;7.032;2023-05-07T14:36:48;8.43;;;4.07;;
6101;SDS011;3081;50.584;7.032;2023-05-07T14:39:16;5.60;;;3.67;;
6101;SDS011;3081;50.584;7.032;2023-05-07T14:41:43;6.37;;;4.57;;
6101;SDS011;3081;50.584;7.032;2023-05-07T14:44:10;7.57;;;4.70;;
6101;SDS011;3081;50.584;7.032;2023-05-07T14:46:37;7.87;;;4.57;;
6101;SDS011;3081;50.584;7.032;2023-05-07T14:49:04;7.53;;;4.30;;
6101;SDS011;3081;50.584;7.032;2023-05-07T14:51:31;6.93;;;4.87;;
6101;SDS011;3081;50.584;7.032;2023-05-07T14:53:58;8.07;;;4.87;;
6101;SDS011;3081;50.584;7.032;2023-05-07T14:56:26;7.23;;;4.47;;
6101;SDS011;3081;50.584;7.032;2023-05-07T14:58:53;10.13;;;6.60;;
6101;SDS011;3081;50.584;7.032;2023-05-07T15:01:20;13.60;;;5.87;;
6101;SDS011;3081;50.584;7.032;2023-05-07T15:03:47;8.67;;;5.60;;
6101;SDS011;3081;50.584;7.032;2023-05-07T15:06:14;9.67;;;5.47;;
6101;SDS011;3081;50.584;7.032;2023-05-07T15:08:41;9.60;;;5.90;;
6101;SDS011;3081;50.584;7.032;2023-05-07T15:11:08;9.33;;;6.13;;
6101;SDS011;3081;50.584;7.032;2023-05-07T15:13:36;11.37;;;7.07;;
6101;SDS011;3081;50.584;7.032;2023-05-07T15:16:03;10.37;;;6.20;;
6101;SDS011;3081;50.584;7.032;2023-05-07T15:18:30;11.87;;;7.20;;
6101;SDS011;3081;50.584;7.032;2023-05-07T15:20:57;12.50;;;7.80;;
6101;SDS011;3081;50.584;7.032;2023-05-07T15:23:24;11.63;;;7.80;;
6101;SDS011;3081;50.584;7.032;2023-05-07T15:25:51;12.53;;;7.40;;
6101;SDS011;3081;50.584;7.032;2023-05-07T15:28:18;8.13;;;6.00;;
6101;SDS011;3081;50.584;7.032;2023-05-07T15:30:47;11.30;;;5.90;;